Time;durP1;ratioP1;P1;durP2;ratioP2;P2;SDS_P1;SDS_P2;PMS_P1;PMS_P2;Temp;Humidity;BMP_temperature;BMP_pressure;BME280_temperature;BME280_humidity;BME280_pressure;Samples;Min_cycle;Max_cycle;Signal;HPM_P1;HPM_P2
2023/08/20 00:01:36;;;;;;;1.60;0.90;;;15.30;99.90;;;;;;4954191;28;20094;-75
2023/08/20 00:04:03;;;;;;;3.03;0.90;;;15.30;99.90;;;;;;4951318;28;20071;-75
2023/08/20 00:06:29;;;;;;;2.25;0.90;;;15.30;99.90;;;;;;4966201;28;20097;-76
2023/08/20 00:08:54;;;;;;;1.58;0.90;;;15.30;99.90;;;;;;4956976;28;20034;-76
2023/08/20 00:11:20;;;;;;;1.70;0.88;;;15.30;99.90;;;;;;4957384;28;20050;-76
2023/08/20 00:13:46;;;;;;;1.63;0.90;;;15.20;99.90;;;;;;4972358;28;20395;-76
2023/08/20 00:16:12;;;;;;;1.45;0.77;;;15.20;99.90;;;;;;4972936;28;20042;-76
2023/08/20 00:18:38;;;;;;;1.25;0.82;;;15.20;99.90;;;;;;4972856;28;20066;-76
2023/08/20 00:21:05;;;;;;;1.42;0.60;;;15.30;99.90;;;;;;4972927;28;20039;-76
2023/08/20 00:23:31;;;;;;;2.15;0.77;;;15.30;99.90;;;;;;4960443;28;20491;-75
2023/08/20 00:25:56;;;;;;;;;;;15.30;99.90;;;;;;4954095;28;20058;-76
2023/08/20 00:28:22;;;;;;;1.83;0.85;;;15.30;99.90;;;;;;4985662;28;20293;-76
2023/08/20 00:30:49;;;;;;;1.63;0.88;;;15.40;99.90;;;;;;4969564;28;20047;-76
2023/08/20 00:33:15;;;;;;;1.92;0.77;;;15.30;99.90;;;;;;4969057;28;20570;-76
2023/08/20 00:35:41;;;;;;;1.02;0.52;;;15.30;99.90;;;;;;4963942;28;20039;-75
2023/08/20 00:38:06;;;;;;;0.80;0.68;;;15.40;99.90;;;;;;4959047;28;20042;-75
2023/08/20 00:40:32;;;;;;;0.90;0.68;;;15.40;99.90;;;;;;4963899;28;20388;-75
2023/08/20 00:42:58;;;;;;;0.70;0.60;;;15.30;99.90;;;;;;4951473;28;20047;-75
2023/08/20 00:45:25;;;;;;;1.13;0.80;;;15.40;99.90;;;;;;4972523;28;20059;-75
2023/08/20 00:47:51;;;;;;;1.63;0.70;;;15.40;99.90;;;;;;4972435;28;20047;-75
2023/08/20 00:50:18;;;;;;;1.83;0.80;;;15.40;99.90;;;;;;4972029;28;20046;-75
2023/08/20 00:52:44;;;;;;;0.95;0.70;;;15.30;99.90;;;;;;4968939;28;20093;-75
2023/08/20 00:55:12;;;;;;;0.90;0.70;;;15.40;99.90;;;;;;4964646;28;20430;-75
2023/08/20 00:57:39;;;;;;;1.60;0.68;;;15.40;99.90;;;;;;4953223;28;20046;-75
2023/08/20 01:00:07;;;;;;;0.82;0.50;;;15.30;99.90;;;;;;4951937;29;20506;-75
2023/08/20 01:02:34;;;;;;;1.05;0.70;;;15.40;99.90;;;;;;4947721;28;20085;-75
2023/08/20 01:05:01;;;;;;;1.60;0.80;;;15.30;99.90;;;;;;4971955;28;20046;-75
2023/08/20 01:08:00;;;;;;;1.20;0.68;;;15.30;99.90;;;;;;4971866;28;20328;-75
2023/08/20 01:10:33;;;;;;;1.42;0.60;;;15.40;99.90;;;;;;4971818;28;20050;-75
2023/08/20 01:13:00;;;;;;;1.38;0.90;;;15.30;99.90;;;;;;4988310;28;20452;-75
2023/08/20 01:15:26;;;;;;;1.48;0.65;;;15.40;99.90;;;;;;4971831;28;20517;-75
2023/08/20 01:17:52;;;;;;;1.58;0.80;;;15.40;99.90;;;;;;4971651;28;20031;-75
2023/08/20 01:20:18;;;;;;;1.00;0.80;;;15.30;99.90;;;;;;4971663;28;20047;-75
2023/08/20 01:23:12;;;;;;;1.13;0.70;;;15.30;99.90;;;;;;4958309;28;20070;-75
2023/08/20 01:26:03;;;;;;;1.38;0.90;;;15.30;99.90;;;;;;4971581;28;20038;-75
2023/08/20 01:28:31;;;;;;;1.73;0.95;;;15.30;99.90;;;;;;4971751;28;20406;-75
2023/08/20 01:30:58;;;;;;;2.58;0.90;;;15.30;99.90;;;;;;4971492;28;20411;-75
2023/08/20 01:33:24;;;;;;;1.48;0.70;;;15.30;99.90;;;;;;4970995;28;20491;-75
2023/08/20 01:35:51;;;;;;;;;;;15.20;99.90;;;;;;4960585;28;20073;-75
2023/08/20 01:38:16;;;;;;;2.30;0.83;;;15.20;99.90;;;;;;5002194;28;20293;-75
2023/08/20 01:40:42;;;;;;;1.63;0.80;;;15.20;99.90;;;;;;4971294;28;20047;-75
2023/08/20 01:43:08;;;;;;;0.75;0.70;;;15.20;99.90;;;;;;4971265;28;20050;-75
2023/08/20 01:45:34;;;;;;;1.60;0.80;;;15.20;99.90;;;;;;4968129;28;20054;-75
2023/08/20 01:47:59;;;;;;;0.90;0.60;;;15.20;99.90;;;;;;4965469;28;20417;-75
2023/08/20 01:50:25;;;;;;;1.33;0.65;;;15.20;99.90;;;;;;4941896;28;20097;-75
2023/08/20 01:52:51;;;;;;;0.68;0.60;;;15.20;99.90;;;;;;4971358;28;20374;-75
2023/08/20 01:55:16;;;;;;;1.30;0.80;;;15.20;99.90;;;;;;4970940;28;20070;-75
2023/08/20 01:57:43;;;;;;;2.25;0.82;;;15.20;99.90;;;;;;4971026;28;20061;-75
2023/08/20 02:00:09;;;;;;;;;;;15.20;99.90;;;;;;4967446;28;20462;-75
2023/08/20 02:02:34;;;;;;;1.65;0.88;;;15.10;99.90;;;;;;4970574;28;19918;-75
2023/08/20 02:05:00;;;;;;;2.10;0.70;;;15.10;99.90;;;;;;4958212;28;20047;-75
2023/08/20 02:07:26;;;;;;;1.40;0.85;;;15.20;99.90;;;;;;4983643;28;20044;-75
2023/08/20 02:09:52;;;;;;;1.33;0.70;;;15.10;99.90;;;;;;4967515;28;20047;-75
2023/08/20 02:12:18;;;;;;;1.60;0.80;;;15.20;99.90;;;;;;4968068;28;20082;-75
2023/08/20 02:14:43;;;;;;;;;;;15.10;99.90;;;;;;4970614;28;20043;-75
2023/08/20 02:17:09;;;;;;;0.80;0.70;;;15.10;99.90;;;;;;5002404;28;19929;-75
2023/08/20 02:19:35;;;;;;;1.13;0.80;;;15.10;99.90;;;;;;4958207;28;20480;-75
2023/08/20 02:22:01;;;;;;;1.33;0.80;;;15.10;99.90;;;;;;4970645;28;20043;-75
2023/08/20 02:24:26;;;;;;;1.58;0.90;;;15.00;99.90;;;;;;4970801;28;20089;-75
2023/08/20 02:26:52;;;;;;;1.25;0.88;;;15.00;99.90;;;;;;4951195;28;20051;-75
2023/08/20 02:29:18;;;;;;;1.83;1.10;;;15.00;99.90;;;;;;4948790;28;20042;-75
2023/08/20 02:31:44;;;;;;;1.13;0.70;;;15.00;99.90;;;;;;4976346;28;20043;-75
2023/08/20 02:34:09;;;;;;;2.80;0.90;;;15.00;99.90;;;;;;4969978;28;20527;-75
2023/08/20 02:36:35;;;;;;;1.15;0.80;;;14.90;99.90;;;;;;4967502;28;20399;-75
2023/08/20 02:39:01;;;;;;;1.00;0.80;;;15.00;99.90;;;;;;4947466;28;20047;-75
2023/08/20 02:41:26;;;;;;;1.17;0.80;;;14.90;99.90;;;;;;4956714;28;20130;-75
2023/08/20 02:43:52;;;;;;;1.17;0.85;;;14.90;99.90;;;;;;4954202;28;20054;-75
2023/08/20 02:46:18;;;;;;;2.47;1.10;;;14.90;99.90;;;;;;4969951;28;20065;-75
2023/08/20 02:48:43;;;;;;;1.70;1.08;;;15.00;99.90;;;;;;4970546;28;20395;-75
2023/08/20 02:51:09;;;;;;;0.88;0.88;;;14.90;99.90;;;;;;4967177;28;20411;-75
2023/08/20 02:53:34;;;;;;;1.77;1.00;;;15.00;99.90;;;;;;4957394;28;20426;-75
2023/08/20 02:56:00;;;;;;;1.10;0.93;;;15.00;99.90;;;;;;4954183;28;20072;-75
2023/08/20 02:58:26;;;;;;;2.17;1.20;;;15.00;99.90;;;;;;4970020;28;20078;-75
2023/08/20 03:00:52;;;;;;;1.23;1.00;;;15.10;99.90;;;;;;4966926;28;20057;-75
2023/08/20 03:03:18;;;;;;;1.25;0.95;;;15.10;99.90;;;;;;4954502;28;20074;-75
2023/08/20 03:05:44;;;;;;;1.90;1.20;;;15.10;99.90;;;;;;4952966;28;20129;-75
2023/08/20 03:08:10;;;;;;;1.88;1.10;;;15.10;99.90;;;;;;4969976;28;20133;-75
2023/08/20 03:10:35;;;;;;;1.63;1.15;;;15.10;99.90;;;;;;4970055;28;20039;-75
2023/08/20 03:13:02;;;;;;;1.30;0.93;;;15.10;99.90;;;;;;4970068;28;20446;-75
2023/08/20 03:15:29;;;;;;;2.20;0.98;;;15.10;99.90;;;;;;4969772;28;20147;-75
2023/08/20 03:17:54;;;;;;;1.35;1.13;;;15.10;99.90;;;;;;4969979;28;20089;-75
2023/08/20 03:20:20;;;;;;;1.17;0.90;;;15.20;99.90;;;;;;4969849;28;20072;-75
2023/08/20 03:22:46;;;;;;;2.22;1.20;;;15.20;99.90;;;;;;4964843;28;20050;-75
2023/08/20 03:25:11;;;;;;;2.28;1.13;;;15.10;99.90;;;;;;4961348;28;20144;-75
2023/08/20 03:27:37;;;;;;;1.20;1.05;;;15.10;99.90;;;;;;4972949;28;20038;-75
2023/08/20 03:30:04;;;;;;;1.58;1.10;;;15.10;99.90;;;;;;4957682;28;20043;-75
2023/08/20 03:32:30;;;;;;;1.65;1.00;;;15.10;99.90;;;;;;4964737;28;20502;-75
2023/08/20 03:34:57;;;;;;;1.77;1.10;;;15.10;99.90;;;;;;4945248;28;20078;-75
2023/08/20 03:37:22;;;;;;;2.05;1.10;;;15.10;99.90;;;;;;4983654;28;20092;-75
2023/08/20 03:39:48;;;;;;;2.80;1.17;;;15.10;99.90;;;;;;4989793;28;20074;-75
2023/08/20 03:42:14;;;;;;;1.00;0.90;;;15.00;99.90;;;;;;4962719;28;20043;-75
2023/08/20 03:44:40;;;;;;;1.10;0.90;;;15.00;99.90;;;;;;4955102;28;20058;-75
2023/08/20 03:47:05;;;;;;;1.80;1.00;;;15.00;99.90;;;;;;4989697;28;20043;-75
2023/08/20 03:49:31;;;;;;;1.33;0.95;;;15.00;99.90;;;;;;4959996;28;20098;-75
2023/08/20 03:51:57;;;;;;;1.88;1.10;;;15.00;99.90;;;;;;4957292;28;20049;-75
2023/08/20 03:54:22;;;;;;;1.30;0.98;;;15.00;99.90;;;;;;4970213;28;20047;-75
2023/08/20 03:56:48;;;;;;;1.60;1.02;;;14.90;99.90;;;;;;4973075;28;20047;-76
2023/08/20 03:59:14;;;;;;;1.73;0.90;;;14.90;99.90;;;;;;4962478;28;20436;-76
2023/08/20 04:01:39;;;;;;;1.58;0.93;;;15.00;99.90;;;;;;4987109;28;20549;-76
2023/08/20 04:04:05;;;;;;;1.60;1.20;;;14.90;99.90;;;;;;4970185;28;20423;-76
2023/08/20 04:06:31;;;;;;;1.25;0.90;;;14.90;99.90;;;;;;4949102;28;20406;-76
2023/08/20 04:08:56;;;;;;;1.20;0.90;;;14.90;99.90;;;;;;4972969;28;20041;-75
2023/08/20 04:11:22;;;;;;;1.63;1.00;;;14.90;99.90;;;;;;4970387;28;20142;-75
2023/08/20 04:13:48;;;;;;;1.70;1.10;;;14.80;99.90;;;;;;4968457;28;20043;-75
2023/08/20 04:16:13;;;;;;;2.03;1.05;;;14.90;99.90;;;;;;4957073;28;20097;-75
2023/08/20 04:18:39;;;;;;;1.40;1.00;;;14.90;99.90;;;;;;4972915;28;20082;-75
2023/08/20 04:21:06;;;;;;;1.77;1.10;;;14.90;99.90;;;;;;4973086;28;20042;-75
2023/08/20 04:23:32;;;;;;;2.60;1.30;;;14.80;99.90;;;;;;4972998;28;20529;-75
2023/08/20 04:25:58;;;;;;;1.83;1.10;;;14.80;99.90;;;;;;4959151;28;20047;-76
2023/08/20 04:28:24;;;;;;;1.42;0.98;;;14.70;99.90;;;;;;4972678;28;20050;-76
2023/08/20 04:30:53;;;;;;;1.30;1.00;;;14.80;99.90;;;;;;4957742;28;20047;-76
2023/08/20 04:33:20;;;;;;;1.55;1.20;;;14.80;99.90;;;;;;4951104;28;20122;-76
2023/08/20 04:35:45;;;;;;;;;;;14.70;99.90;;;;;;4973102;28;20054;-76
2023/08/20 04:38:11;;;;;;;1.42;1.02;;;14.80;99.90;;;;;;4955999;28;19929;-76
2023/08/20 04:40:37;;;;;;;2.22;1.00;;;14.80;99.90;;;;;;4961069;28;20198;-76
2023/08/20 04:43:02;;;;;;;1.98;1.20;;;14.70;99.90;;;;;;4983210;28;20503;-76
2023/08/20 04:45:28;;;;;;;1.55;1.00;;;14.70;99.90;;;;;;4979198;28;20502;-76
2023/08/20 04:47:54;;;;;;;1.65;1.10;;;14.60;99.90;;;;;;4956841;28;20122;-76
2023/08/20 04:50:19;;;;;;;1.27;1.17;;;14.70;99.90;;;;;;4960966;28;20068;-76
2023/08/20 04:52:45;;;;;;;1.27;0.95;;;14.60;99.90;;;;;;4958622;28;20174;-76
2023/08/20 04:55:11;;;;;;;1.27;0.90;;;14.60;99.90;;;;;;4972493;28;20053;-76
2023/08/20 04:57:37;;;;;;;1.20;0.80;;;14.60;99.90;;;;;;4952825;28;20499;-76
2023/08/20 05:00:03;;;;;;;1.30;0.80;;;14.60;99.90;;;;;;4967015;28;20057;-76
2023/08/20 05:02:29;;;;;;;1.27;0.93;;;14.70;99.90;;;;;;4959144;28;20058;-76
2023/08/20 05:04:54;;;;;;;1.65;0.90;;;14.70;99.90;;;;;;4972247;28;20433;-76
2023/08/20 05:07:20;;;;;;;1.20;0.80;;;14.70;99.90;;;;;;4956186;28;20122;-76
2023/08/20 05:09:46;;;;;;;1.33;1.00;;;14.80;99.90;;;;;;4956006;28;20042;-76
2023/08/20 05:12:12;;;;;;;1.67;0.98;;;14.80;99.90;;;;;;4971938;28;20046;-76
2023/08/20 05:14:37;;;;;;;1.50;0.95;;;14.80;99.90;;;;;;4955914;28;20054;-76
2023/08/20 05:17:03;;;;;;;1.20;0.80;;;14.90;99.90;;;;;;4968577;28;20074;-76
2023/08/20 05:19:29;;;;;;;1.00;0.90;;;14.90;99.90;;;;;;4959123;28;20034;-76
2023/08/20 05:21:58;;;;;;;1.50;1.00;;;14.90;99.90;;;;;;4972179;28;20054;-76
2023/08/20 05:24:24;;;;;;;2.60;1.30;;;14.90;99.90;;;;;;4952328;28;20039;-76
2023/08/20 05:27:14;;;;;;;1.58;0.98;;;14.90;99.90;;;;;;4947157;28;20375;-76
2023/08/20 05:29:40;;;;;;;1.63;1.00;;;15.00;99.90;;;;;;4955734;28;20047;-76
2023/08/20 05:32:09;;;;;;;1.80;1.00;;;15.10;99.90;;;;;;4971769;28;20039;-76
2023/08/20 05:34:35;;;;;;;1.60;0.98;;;15.10;99.90;;;;;;4941270;28;20489;-76
2023/08/20 05:37:01;;;;;;;2.03;1.20;;;15.10;99.90;;;;;;4955631;28;20050;-76
2023/08/20 05:39:27;;;;;;;2.75;1.20;;;15.20;99.90;;;;;;4939737;28;20058;-76
2023/08/20 05:41:53;;;;;;;1.17;0.80;;;15.20;99.90;;;;;;4971772;28;20138;-76
2023/08/20 05:44:19;;;;;;;1.55;1.17;;;15.20;99.90;;;;;;4971527;28;20056;-76
2023/08/20 05:46:45;;;;;;;1.38;1.10;;;15.30;99.90;;;;;;4971763;28;20039;-76
2023/08/20 05:49:12;;;;;;;1.67;1.00;;;15.40;99.90;;;;;;4970755;28;20126;-76
2023/08/20 05:51:37;;;;;;;1.63;0.93;;;15.30;99.90;;;;;;4955396;28;20057;-76
2023/08/20 05:54:03;;;;;;;1.17;0.90;;;15.40;99.90;;;;;;4980685;28;20051;-76
2023/08/20 05:56:29;;;;;;;1.33;1.00;;;15.40;99.90;;;;;;4970078;28;21460;-76
2023/08/20 05:58:54;;;;;;;1.10;0.90;;;15.50;99.90;;;;;;4959500;28;20121;-76
2023/08/20 06:01:20;;;;;;;0.60;0.60;;;15.60;99.90;;;;;;4966007;28;20050;-76
2023/08/20 06:03:46;;;;;;;1.63;1.00;;;15.60;99.90;;;;;;4971194;28;20116;-76
2023/08/20 06:06:11;;;;;;;1.70;1.02;;;15.70;99.90;;;;;;4955252;28;20182;-76
2023/08/20 06:08:37;;;;;;;1.45;0.90;;;15.80;99.90;;;;;;4968309;28;20495;-76
2023/08/20 06:11:02;;;;;;;0.70;0.70;;;15.80;99.90;;;;;;4971080;28;20073;-76
2023/08/20 06:13:28;;;;;;;1.20;0.80;;;16.00;99.90;;;;;;4958475;28;20065;-76
2023/08/20 06:15:54;;;;;;;1.50;0.82;;;16.00;99.90;;;;;;4969711;28;20212;-76
2023/08/20 06:18:19;;;;;;;1.48;1.05;;;16.10;99.90;;;;;;4970800;28;20046;-76
2023/08/20 06:20:45;;;;;;;2.63;0.93;;;16.30;99.90;;;;;;4954622;28;20051;-76
2023/08/20 06:23:11;;;;;;;1.02;0.82;;;16.30;99.90;;;;;;4959697;28;20053;-76
2023/08/20 06:25:37;;;;;;;2.17;1.10;;;16.50;99.90;;;;;;4970585;28;20134;-76
2023/08/20 06:28:03;;;;;;;2.08;1.20;;;16.50;99.90;;;;;;4954650;28;20133;-76
2023/08/20 06:30:29;;;;;;;2.42;0.98;;;16.70;99.90;;;;;;4970478;28;20455;-76
2023/08/20 06:32:54;;;;;;;2.53;1.10;;;16.80;99.90;;;;;;4957482;28;20043;-76
2023/08/20 06:35:20;;;;;;;2.22;1.17;;;16.90;99.90;;;;;;4961476;28;20371;-76
2023/08/20 06:37:46;;;;;;;1.75;1.17;;;17.10;99.90;;;;;;4969759;28;20499;-76
2023/08/20 06:40:13;;;;;;;1.85;0.95;;;17.20;99.90;;;;;;4962242;28;20039;-76
2023/08/20 06:42:39;;;;;;;1.75;1.00;;;17.30;99.90;;;;;;4965473;28;20129;-76
2023/08/20 06:45:05;;;;;;;;;;;17.50;99.90;;;;;;4970698;28;20130;-76
2023/08/20 06:47:31;;;;;;;0.80;0.70;;;17.60;99.90;;;;;;5003171;28;20010;-76
2023/08/20 06:49:56;;;;;;;0.70;0.65;;;17.80;99.90;;;;;;4952005;28;20051;-76
2023/08/20 06:52:22;;;;;;;1.75;1.00;;;18.00;99.90;;;;;;4961729;28;20053;-75
2023/08/20 06:54:48;;;;;;;2.40;0.95;;;18.20;99.90;;;;;;4954309;28;20049;-75
2023/08/20 06:57:13;;;;;;;;;;;18.50;99.90;;;;;;4954675;28;20046;-75
2023/08/20 06:59:39;;;;;;;2.38;1.10;;;18.60;99.90;;;;;;4987937;28;19919;-76
2023/08/20 07:02:04;;;;;;;;;;;18.70;99.90;;;;;;4957959;28;20149;-76
2023/08/20 07:04:30;;;;;;;2.95;1.20;;;18.80;99.90;;;;;;5002679;28;19925;-76
2023/08/20 07:06:56;;;;;;;;;;;18.90;99.90;;;;;;4956961;28;20062;-76
2023/08/20 07:09:21;;;;;;;2.35;1.20;;;19.10;99.90;;;;;;4970437;28;19921;-76
2023/08/20 07:11:47;;;;;;;;;;;19.30;99.90;;;;;;4958247;28;20445;-76
2023/08/20 07:14:13;;;;;;;1.85;1.10;;;19.40;99.90;;;;;;4987480;28;19922;-76
2023/08/20 07:16:38;;;;;;;;;;;19.50;99.90;;;;;;4967401;28;20066;-76
2023/08/20 07:19:04;;;;;;;2.90;1.45;;;19.50;99.90;;;;;;4966582;28;19980;-76
2023/08/20 07:21:29;;;;;;;;;;;19.80;99.90;;;;;;4951319;28;20040;-76
2023/08/20 07:23:55;;;;;;;3.85;1.40;;;19.80;99.90;;;;;;4997893;28;19918;-76
2023/08/20 07:26:21;;;;;;;;;;;20.00;99.90;;;;;;4963970;28;20120;-76
2023/08/20 07:28:59;;;;;;;4.68;1.50;;;20.10;99.90;;;;;;4962854;28;19964;-76
2023/08/20 07:31:33;;;;;;;4.38;1.70;;;20.20;99.90;;;;;;4966956;28;20090;-77
2023/08/20 07:34:02;;;;;;;3.75;1.42;;;20.20;99.90;;;;;;4969731;28;20054;-76
2023/08/20 07:36:28;;;;;;;3.45;1.30;;;20.20;99.90;;;;;;4969968;28;20417;-76
2023/08/20 07:38:54;;;;;;;;;;;20.30;99.90;;;;;;4970335;28;20043;-76
2023/08/20 07:41:21;;;;;;;4.13;1.30;;;20.50;99.90;;;;;;4998834;28;19918;-76
2023/08/20 07:43:48;;;;;;;3.03;1.20;;;20.80;99.90;;;;;;4960357;28;20391;-76
2023/08/20 07:46:15;;;;;;;3.75;1.30;;;20.90;99.90;;;;;;4969609;28;20050;-76
2023/08/20 07:48:41;;;;;;;3.90;1.20;;;20.90;99.90;;;;;;4945590;29;20047;-76
2023/08/20 07:51:07;;;;;;;3.58;1.27;;;21.00;99.90;;;;;;4950988;28;20055;-76
2023/08/20 07:53:33;;;;;;;3.45;1.38;;;21.00;99.90;;;;;;4969683;28;20132;-76
2023/08/20 07:56:00;;;;;;;4.72;1.30;;;21.10;99.90;;;;;;4969773;28;20130;-76
2023/08/20 07:58:25;;;;;;;3.85;1.40;;;21.20;99.90;;;;;;4954822;28;20039;-76
2023/08/20 08:00:51;;;;;;;4.03;1.48;;;21.30;99.90;;;;;;4978632;28;20077;-76
2023/08/20 08:03:17;;;;;;;3.70;1.38;;;21.40;1.00;;;;;;4969442;28;20137;-76
2023/08/20 08:05:47;;;;;;;3.40;1.30;;;21.50;99.90;;;;;;4953472;28;20078;-76
2023/08/20 08:08:13;;;;;;;2.85;1.33;;;21.60;99.90;;;;;;4954272;28;20062;-76
2023/08/20 08:10:39;;;;;;;3.40;1.25;;;21.70;99.90;;;;;;4956173;28;20461;-76
2023/08/20 08:13:05;;;;;;;3.45;1.40;;;21.90;64.30;;;;;;4962620;28;20066;-76
2023/08/20 08:15:30;;;;;;;7.40;1.95;;;22.00;99.90;;;;;;4965703;28;20047;-76
2023/08/20 08:17:56;;;;;;;4.45;1.40;;;21.90;99.90;;;;;;4961005;28;20513;-76
2023/08/20 08:20:22;;;;;;;3.25;1.10;;;22.20;1.00;;;;;;4973005;28;20078;-76
2023/08/20 08:22:48;;;;;;;2.20;1.00;;;22.30;10.00;;;;;;4969716;28;20050;-76
2023/08/20 08:25:13;;;;;;;3.88;1.40;;;22.30;99.90;;;;;;4964609;28;20042;-76
2023/08/20 08:27:39;;;;;;;3.53;1.20;;;22.40;65.50;;;;;;4956743;28;20449;-77
2023/08/20 08:30:05;;;;;;;5.53;1.77;;;22.40;1.00;;;;;;4963458;28;20184;-77
2023/08/20 08:32:31;;;;;;;4.18;1.10;;;22.60;99.90;;;;;;4968424;28;20133;-77
2023/08/20 08:34:57;;;;;;;4.00;1.42;;;22.70;99.90;;;;;;4965546;28;20495;-76
2023/08/20 08:37:22;;;;;;;1.98;0.80;;;22.80;99.90;;;;;;4963207;28;20511;-77
2023/08/20 08:39:48;;;;;;;2.55;0.90;;;23.00;99.90;;;;;;4971917;28;20055;-76
2023/08/20 08:42:15;;;;;;;2.60;1.10;;;23.20;99.90;;;;;;4972997;28;20047;-76
2023/08/20 08:44:41;;;;;;;4.85;1.48;;;23.10;99.90;;;;;;4972361;28;20062;-77
2023/08/20 08:47:07;;;;;;;2.97;0.85;;;23.20;1.00;;;;;;4972570;28;20049;-76
2023/08/20 08:49:36;;;;;;;3.95;1.35;;;23.20;99.90;;;;;;4941137;28;20039;-76
2023/08/20 08:52:04;;;;;;;4.43;1.13;;;23.20;99.90;;;;;;4969226;28;20157;-77
2023/08/20 08:54:32;;;;;;;4.85;1.40;;;23.20;99.90;;;;;;4967016;28;20047;-77
2023/08/20 08:56:58;;;;;;;3.78;1.30;;;23.30;1.00;;;;;;4956271;28;20057;-76
2023/08/20 08:59:23;;;;;;;5.03;1.08;;;23.40;99.90;;;;;;4972252;28;20395;-77
2023/08/20 09:01:49;;;;;;;2.33;0.88;;;23.40;99.90;;;;;;4958286;28;20042;-77
2023/08/20 09:04:15;;;;;;;4.22;1.45;;;23.60;99.90;;;;;;4971932;28;20113;-76
2023/08/20 09:06:51;;;;;;;3.08;1.00;;;23.50;99.90;;;;;;4972228;28;20058;-77
2023/08/20 09:09:17;;;;;;;2.88;0.98;;;23.70;99.90;;;;;;4988517;28;20141;-77
2023/08/20 09:11:43;;;;;;;3.28;0.98;;;23.80;99.90;;;;;;4955783;28;20049;-77
2023/08/20 09:14:20;;;;;;;4.07;1.35;;;23.90;99.90;;;;;;4958115;28;20134;-77
2023/08/20 09:16:47;;;;;;;5.50;1.40;;;23.80;99.90;;;;;;4968856;28;20048;-77
2023/08/20 09:19:12;;;;;;;4.45;1.17;;;23.90;99.90;;;;;;4969835;28;20039;-77
2023/08/20 09:21:38;;;;;;;2.63;1.00;;;24.10;99.90;;;;;;4972005;28;20093;-78
2023/08/20 09:24:04;;;;;;;4.63;1.20;;;24.10;13.30;;;;;;4940461;28;20050;-77
2023/08/20 09:26:30;;;;;;;3.97;1.10;;;24.00;33.40;;;;;;4976283;28;20454;-77
2023/08/20 09:28:58;;;;;;;4.05;0.90;;;24.00;34.40;;;;;;4971984;28;20077;-77
2023/08/20 09:31:38;;;;;;;3.28;1.00;;;24.10;78.40;;;;;;4971699;28;20117;-76
2023/08/20 09:34:04;;;;;;;4.03;1.20;;;24.20;1.00;;;;;;4957741;28;20121;-76
2023/08/20 09:36:34;;;;;;;7.30;1.42;;;24.10;78.20;;;;;;4971602;28;20043;-76
2023/08/20 09:39:03;;;;;;;3.75;0.85;;;24.10;1.00;;;;;;4959194;28;20043;-77
2023/08/20 09:41:29;;;;;;;5.03;1.27;;;24.20;99.90;;;;;;4966075;28;20035;-76
2023/08/20 09:43:59;;;;;;;2.38;0.82;;;24.40;99.90;;;;;;4952152;28;20086;-76
2023/08/20 09:46:27;;;;;;;2.80;1.02;;;24.60;89.50;;;;;;4955949;28;20096;-76
2023/08/20 09:48:57;;;;;;;3.90;0.85;;;24.70;81.10;;;;;;4971470;28;20053;-77
2023/08/20 09:51:26;;;;;;;2.38;1.00;;;24.50;39.00;;;;;;4971370;28;20054;-77
2023/08/20 09:54:19;;;;;;;3.33;1.00;;;24.30;1.00;;;;;;4971230;28;20068;-76
2023/08/20 09:56:51;;;;;;;6.45;1.63;;;24.10;99.90;;;;;;4971149;28;20062;-77
2023/08/20 09:59:17;;;;;;;3.63;1.10;;;24.00;60.60;;;;;;4971371;28;20052;-76
2023/08/20 10:01:43;;;;;;;6.35;1.38;;;24.10;99.90;;;;;;4970769;28;20042;-76
2023/08/20 10:04:10;;;;;;;5.82;1.38;;;23.80;1.00;;;;;;4965219;28;20043;-76
2023/08/20 10:06:37;;;;;;;3.30;1.20;;;23.90;1.00;;;;;;4951815;28;20043;-76
2023/08/20 10:09:03;;;;;;;3.80;1.00;;;23.90;7.70;;;;;;4969396;28;20433;-76
2023/08/20 10:11:29;;;;;;;3.92;1.00;;;24.00;13.30;;;;;;4971065;28;20046;-76
2023/08/20 10:13:54;;;;;;;2.85;1.05;;;24.10;61.70;;;;;;4986830;28;20130;-76
2023/08/20 10:16:22;;;;;;;3.78;1.00;;;24.50;68.50;;;;;;4939332;28;20054;-76
2023/08/20 10:18:48;;;;;;;3.22;1.00;;;24.50;1.00;;;;;;4954934;28;20054;-77
2023/08/20 10:21:14;;;;;;;2.28;0.80;;;24.80;99.90;;;;;;4970860;28;20053;-77
2023/08/20 10:23:48;;;;;;;3.45;0.90;;;25.10;1.00;;;;;;4970758;28;20049;-76
2023/08/20 10:26:16;;;;;;;3.22;1.08;;;25.10;99.90;;;;;;4925577;28;20382;-76
2023/08/20 10:28:42;;;;;;;5.32;1.50;;;25.20;99.90;;;;;;4962952;28;20050;-77
2023/08/20 10:31:17;;;;;;;3.15;0.95;;;25.00;99.90;;;;;;4972305;28;20042;-77
2023/08/20 10:33:54;;;;;;;2.03;0.80;;;25.10;99.90;;;;;;4954422;28;20425;-77
2023/08/20 10:36:22;;;;;;;3.97;1.00;;;25.10;99.90;;;;;;4952238;28;20395;-76
2023/08/20 10:38:49;;;;;;;2.53;0.93;;;25.30;99.90;;;;;;4962001;28;20046;-76
2023/08/20 10:41:18;;;;;;;2.85;1.00;;;25.60;99.90;;;;;;4953560;28;20038;-76
2023/08/20 10:43:52;;;;;;;2.78;0.90;;;25.60;99.90;;;;;;4973926;28;20070;-76
2023/08/20 10:46:18;;;;;;;3.60;1.00;;;25.70;99.90;;;;;;5000072;28;20047;-76
2023/08/20 10:48:51;;;;;;;1.95;0.90;;;25.40;99.90;;;;;;4961716;28;20058;-76
2023/08/20 10:51:23;;;;;;;4.53;1.20;;;25.80;99.90;;;;;;4954300;28;20047;-76
2023/08/20 10:54:01;;;;;;;2.63;0.85;;;25.50;99.90;;;;;;4970225;28;20113;-77
2023/08/20 10:56:43;;;;;;;3.03;0.95;;;25.40;99.90;;;;;;4950925;28;20047;-76
2023/08/20 10:59:17;;;;;;;2.35;0.68;;;25.60;99.90;;;;;;4945244;28;20043;-76
2023/08/20 11:01:48;;;;;;;3.65;1.02;;;25.90;99.90;;;;;;4970127;28;20125;-77
2023/08/20 11:04:21;;;;;;;2.00;0.63;;;25.90;99.90;;;;;;4957384;28;20452;-77
2023/08/20 11:06:53;;;;;;;3.28;1.02;;;26.00;99.90;;;;;;4970260;28;20142;-77
2023/08/20 11:09:19;;;;;;;2.65;0.80;;;26.10;99.90;;;;;;4964092;28;20435;-77
2023/08/20 11:11:44;;;;;;;1.80;0.73;;;26.40;99.90;;;;;;4963064;28;20093;-76
2023/08/20 11:14:15;;;;;;;3.15;1.00;;;26.50;99.90;;;;;;4953167;28;20078;-77
2023/08/20 11:16:41;;;;;;;4.13;1.20;;;26.10;99.90;;;;;;4961633;28;20053;-77
2023/08/20 11:19:10;;;;;;;3.45;1.05;;;25.90;98.90;;;;;;4970068;28;20046;-77
2023/08/20 11:21:38;;;;;;;3.08;1.02;;;25.80;99.90;;;;;;4983138;28;20050;-77
2023/08/20 11:24:05;;;;;;;4.35;1.15;;;25.60;99.90;;;;;;4984644;28;20051;-77
2023/08/20 11:26:30;;;;;;;3.28;1.08;;;25.00;99.90;;;;;;4970068;28;20046;-77
2023/08/20 11:28:56;;;;;;;3.78;1.10;;;24.60;99.90;;;;;;4970117;28;20062;-77
2023/08/20 11:31:22;;;;;;;2.05;0.75;;;24.70;99.90;;;;;;4970227;28;20078;-77
2023/08/20 11:33:49;;;;;;;3.75;1.10;;;24.90;99.90;;;;;;4969806;28;20063;-77
2023/08/20 11:36:18;;;;;;;3.65;0.93;;;25.10;99.90;;;;;;4956444;28;20045;-77
2023/08/20 11:38:51;;;;;;;1.70;0.52;;;25.50;99.90;;;;;;4969930;28;20058;-77
2023/08/20 11:41:16;;;;;;;2.92;1.00;;;26.00;99.90;;;;;;4970156;28;20548;-77
2023/08/20 11:43:42;;;;;;;1.95;0.50;;;26.00;86.80;;;;;;4970240;28;20051;-77
2023/08/20 11:46:16;;;;;;;3.20;1.00;;;26.10;21.20;;;;;;4971243;28;20681;-77
2023/08/20 11:49:04;;;;;;;3.17;0.77;;;25.50;1.00;;;;;;4973124;28;20047;-77
2023/08/20 11:51:41;;;;;;;2.85;0.80;;;26.00;6.20;;;;;;4973906;28;20046;-77
2023/08/20 11:54:17;;;;;;;2.88;0.90;;;26.10;58.20;;;;;;4962737;28;20507;-77
2023/08/20 11:56:46;;;;;;;2.08;0.63;;;26.50;33.50;;;;;;4972318;28;20133;-77
2023/08/20 11:59:12;;;;;;;2.17;0.80;;;26.60;34.60;;;;;;4973440;28;20054;-78
2023/08/20 12:01:38;;;;;;;3.13;0.73;;;26.70;11.10;;;;;;4973214;28;20039;-77
2023/08/20 12:04:05;;;;;;;1.20;0.60;;;26.60;15.30;;;;;;4973196;28;20054;-77
2023/08/20 12:06:31;;;;;;;5.40;1.30;;;26.70;11.30;;;;;;4989818;28;20451;-77
2023/08/20 12:08:58;;;;;;;2.88;0.85;;;26.30;5.40;;;;;;4973199;28;20054;-77
2023/08/20 12:11:28;;;;;;;3.03;1.00;;;26.40;20.90;;;;;;4973445;28;20054;-77
2023/08/20 12:13:54;;;;;;;1.75;0.60;;;26.30;26.50;;;;;;4956908;28;20483;-77
2023/08/20 12:16:22;;;;;;;3.03;0.80;;;26.70;1.00;;;;;;4957179;28;20078;-77
2023/08/20 12:18:48;;;;;;;3.17;0.80;;;26.70;1.00;;;;;;4972502;28;20039;-77
2023/08/20 12:21:15;;;;;;;2.47;0.70;;;26.90;1.00;;;;;;4960374;28;20211;-77
2023/08/20 12:23:40;;;;;;;2.33;0.70;;;27.00;1.00;;;;;;4960835;28;20075;-77
2023/08/20 12:26:07;;;;;;;2.13;0.93;;;27.20;1.00;;;;;;4971572;28;20085;-77
2023/08/20 12:28:34;;;;;;;3.33;0.90;;;26.90;1.00;;;;;;4973060;28;20486;-77
2023/08/20 12:31:00;;;;;;;3.20;0.90;;;27.00;1.00;;;;;;4972771;28;20082;-77
2023/08/20 12:33:26;;;;;;;4.38;1.25;;;27.10;1.00;;;;;;4964000;28;20047;-77
2023/08/20 12:35:55;;;;;;;3.67;0.90;;;27.00;1.00;;;;;;4954088;28;20106;-77
2023/08/20 12:38:21;;;;;;;2.60;0.98;;;26.70;1.00;;;;;;4972828;28;20611;-77
2023/08/20 12:40:47;;;;;;;2.85;0.90;;;26.80;1.00;;;;;;4985776;28;20090;-77
2023/08/20 12:43:13;;;;;;;3.03;0.80;;;26.50;1.00;;;;;;4990939;28;20054;-77
2023/08/20 12:45:39;;;;;;;2.33;0.80;;;26.70;1.00;;;;;;4972718;28;20047;-77
2023/08/20 12:48:05;;;;;;;1.98;0.70;;;26.60;1.00;;;;;;4972652;28;20484;-77
2023/08/20 12:50:31;;;;;;;2.22;0.70;;;26.50;99.90;;;;;;4972737;28;20053;-77